sensor_id;sensor_type;location;lat;lon;timestamp;pressure;altitude;pressure_sealevel;temperature;humidity
35676;BME280;21790;42.668;23.298;2023-02-17T00:00:11;95609.81;;;9.55;39.38
35676;BME280;21790;42.668;23.298;2023-02-17T00:02:37;95612.84;;;9.45;39.51
35676;BME280;21790;42.668;23.298;2023-02-17T00:05:04;95604.81;;;9.50;39.37
35676;BME280;21790;42.668;23.298;2023-02-17T00:07:31;95601.53;;;9.55;39.46
35676;BME280;21790;42.668;23.298;2023-02-17T00:09:57;95616.38;;;9.29;40.02
35676;BME280;21790;42.668;23.298;2023-02-17T00:12:23;95604.75;;;9.21;40.39
35676;BME280;21790;42.668;23.298;2023-02-17T00:14:49;95614.41;;;9.46;39.72
35676;BME280;21790;42.668;23.298;2023-02-17T00:17:15;95613.09;;;9.34;39.57
35676;BME280;21790;42.668;23.298;2023-02-17T00:19:40;95599.94;;;9.26;39.70
35676;BME280;21790;42.668;23.298;2023-02-17T00:22:06;95607.84;;;9.40;39.92
35676;BME280;21790;42.668;23.298;2023-02-17T00:24:33;95607.69;;;9.31;39.41
35676;BME280;21790;42.668;23.298;2023-02-17T00:27:01;95619.25;;;9.26;40.16
35676;BME280;21790;42.668;23.298;2023-02-17T00:29:27;95612.44;;;9.30;39.93
35676;BME280;21790;42.668;23.298;2023-02-17T00:31:53;95598.25;;;9.60;39.14
35676;BME280;21790;42.668;23.298;2023-02-17T00:34:18;95595.34;;;9.19;40.04
35676;BME280;21790;42.668;23.298;2023-02-17T00:36:44;95594.56;;;9.18;39.96
35676;BME280;21790;42.668;23.298;2023-02-17T00:39:12;95590.34;;;9.14;40.36
35676;BME280;21790;42.668;23.298;2023-02-17T00:41:42;95584.69;;;9.05;40.54
35676;BME280;21790;42.668;23.298;2023-02-17T00:44:22;95576.56;;;9.30;40.22
35676;BME280;21790;42.668;23.298;2023-02-17T00:46:49;95582.75;;;9.02;40.22
35676;BME280;21790;42.668;23.298;2023-02-17T00:49:20;95574.16;;;9.16;40.42
35676;BME280;21790;42.668;23.298;2023-02-17T00:51:46;95574.06;;;9.19;40.12
35676;BME280;21790;42.668;23.298;2023-02-17T00:54:13;95563.75;;;9.69;38.73
35676;BME280;21790;42.668;23.298;2023-02-17T00:56:39;95573.63;;;9.53;38.86
35676;BME280;21790;42.668;23.298;2023-02-17T00:59:04;95573.72;;;9.34;39.18
35676;BME280;21790;42.668;23.298;2023-02-17T01:01:30;95576.72;;;9.39;39.15
35676;BME280;21790;42.668;23.298;2023-02-17T01:03:56;95578.81;;;9.19;39.54
35676;BME280;21790;42.668;23.298;2023-02-17T01:06:27;95571.47;;;9.29;39.68
35676;BME280;21790;42.668;23.298;2023-02-17T01:08:53;95581.66;;;9.32;39.43
35676;BME280;21790;42.668;23.298;2023-02-17T01:11:22;95577.44;;;9.11;39.99
35676;BME280;21790;42.668;23.298;2023-02-17T01:13:48;95579.31;;;8.98;40.26
35676;BME280;21790;42.668;23.298;2023-02-17T01:16:22;95565.28;;;8.92;40.36
35676;BME280;21790;42.668;23.298;2023-02-17T01:18:48;95574.50;;;9.02;40.58
35676;BME280;21790;42.668;23.298;2023-02-17T01:21:16;95573.91;;;8.94;40.85
35676;BME280;21790;42.668;23.298;2023-02-17T01:23:42;95578.97;;;9.12;40.12
35676;BME280;21790;42.668;23.298;2023-02-17T01:26:16;95563.13;;;9.32;39.91
35676;BME280;21790;42.668;23.298;2023-02-17T01:28:42;95568.31;;;9.14;40.11
35676;BME280;21790;42.668;23.298;2023-02-17T01:31:09;95565.91;;;9.16;40.26
35676;BME280;21790;42.668;23.298;2023-02-17T01:33:36;95563.13;;;9.00;40.47
35676;BME280;21790;42.668;23.298;2023-02-17T01:36:03;95558.31;;;9.20;40.05
35676;BME280;21790;42.668;23.298;2023-02-17T01:38:29;95546.34;;;9.10;39.59
35676;BME280;21790;42.668;23.298;2023-02-17T01:40:56;95553.13;;;9.06;40.33
35676;BME280;21790;42.668;23.298;2023-02-17T01:43:22;95546.34;;;9.10;39.99
35676;BME280;21790;42.668;23.298;2023-02-17T01:46:00;95563.81;;;9.20;40.69
35676;BME280;21790;42.668;23.298;2023-02-17T01:51:21;95558.72;;;9.18;40.21
35676;BME280;21790;42.668;23.298;2023-02-17T01:56:18;95560.69;;;8.86;41.04
35676;BME280;21790;42.668;23.298;2023-02-17T01:58:54;95560.38;;;9.00;41.09
35676;BME280;21790;42.668;23.298;2023-02-17T02:01:22;95560.13;;;8.94;40.50
35676;BME280;21790;42.668;23.298;2023-02-17T02:03:47;95555.81;;;8.93;40.02
35676;BME280;21790;42.668;23.298;2023-02-17T02:06:17;95534.94;;;8.92;40.33
35676;BME280;21790;42.668;23.298;2023-02-17T02:08:51;95552.69;;;9.40;39.27
35676;BME280;21790;42.668;23.298;2023-02-17T02:11:18;95549.25;;;9.03;39.56
35676;BME280;21790;42.668;23.298;2023-02-17T02:13:44;95552.97;;;9.13;39.60
35676;BME280;21790;42.668;23.298;2023-02-17T02:16:19;95544.94;;;9.35;39.29
35676;BME280;21790;42.668;23.298;2023-02-17T02:18:59;95542.59;;;9.17;39.96
35676;BME280;21790;42.668;23.298;2023-02-17T02:21:39;95550.88;;;9.01;40.24
35676;BME280;21790;42.668;23.298;2023-02-17T02:24:23;95543.63;;;8.74;40.14
35676;BME280;21790;42.668;23.298;2023-02-17T02:27:14;95557.00;;;8.92;40.49
35676;BME280;21790;42.668;23.298;2023-02-17T02:30:07;95550.09;;;9.00;40.09
35676;BME280;21790;42.668;23.298;2023-02-17T02:32:53;95553.31;;;8.99;39.97
35676;BME280;21790;42.668;23.298;2023-02-17T02:35:39;95548.56;;;8.83;40.76
35676;BME280;21790;42.668;23.298;2023-02-17T02:38:30;95559.63;;;8.63;41.07
35676;BME280;21790;42.668;23.298;2023-02-17T02:41:33;95556.72;;;8.70;40.52
35676;BME280;21790;42.668;23.298;2023-02-17T02:43:57;95545.72;;;8.87;40.25
35676;BME280;21790;42.668;23.298;2023-02-17T02:46:23;95545.03;;;8.82;40.44
35676;BME280;21790;42.668;23.298;2023-02-17T02:48:49;95552.59;;;8.78;40.13
35676;BME280;21790;42.668;23.298;2023-02-17T02:51:29;95534.41;;;9.30;39.65
35676;BME280;21790;42.668;23.298;2023-02-17T02:54:20;95563.66;;;9.27;39.44
35676;BME280;21790;42.668;23.298;2023-02-17T02:57:10;95553.63;;;9.33;39.61
35676;BME280;21790;42.668;23.298;2023-02-17T03:00:09;95552.69;;;9.23;39.96
35676;BME280;21790;42.668;23.298;2023-02-17T03:02:48;95535.56;;;9.16;40.05
35676;BME280;21790;42.668;23.298;2023-02-17T03:08:14;95551.34;;;8.99;40.15
35676;BME280;21790;42.668;23.298;2023-02-17T03:10:50;95555.97;;;9.18;40.00
35676;BME280;21790;42.668;23.298;2023-02-17T03:13:17;95565.53;;;8.98;40.08
35676;BME280;21790;42.668;23.298;2023-02-17T03:15:44;95556.84;;;9.15;39.74
35676;BME280;21790;42.668;23.298;2023-02-17T03:18:10;95543.06;;;8.99;40.28
35676;BME280;21790;42.668;23.298;2023-02-17T03:20:44;95546.72;;;9.41;39.55
35676;BME280;21790;42.668;23.298;2023-02-17T03:23:12;95542.53;;;9.04;40.16
35676;BME280;21790;42.668;23.298;2023-02-17T03:25:37;95550.88;;;9.01;39.99
35676;BME280;21790;42.668;23.298;2023-02-17T03:28:04;95549.84;;;8.95;40.21
35676;BME280;21790;42.668;23.298;2023-02-17T03:30:30;95545.44;;;8.65;41.06
35676;BME280;21790;42.668;23.298;2023-02-17T03:32:55;95546.22;;;9.30;39.16
35676;BME280;21790;42.668;23.298;2023-02-17T03:35:21;95564.31;;;9.47;38.71
35676;BME280;21790;42.668;23.298;2023-02-17T03:37:46;95551.75;;;8.98;39.56
35676;BME280;21790;42.668;23.298;2023-02-17T03:40:12;95542.88;;;9.06;39.46
35676;BME280;21790;42.668;23.298;2023-02-17T03:42:37;95548.47;;;9.03;39.99
35676;BME280;21790;42.668;23.298;2023-02-17T03:45:03;95529.34;;;8.79;40.50
35676;BME280;21790;42.668;23.298;2023-02-17T03:47:29;95549.16;;;8.74;40.50
35676;BME280;21790;42.668;23.298;2023-02-17T03:49:54;95553.47;;;9.24;39.52
35676;BME280;21790;42.668;23.298;2023-02-17T03:52:20;95551.41;;;9.12;40.02
35676;BME280;21790;42.668;23.298;2023-02-17T03:54:45;95554.34;;;8.89;40.31
35676;BME280;21790;42.668;23.298;2023-02-17T03:57:11;95552.59;;;8.78;40.26
35676;BME280;21790;42.668;23.298;2023-02-17T03:59:37;95538.75;;;8.82;40.48
35676;BME280;21790;42.668;23.298;2023-02-17T04:02:02;95550.53;;;8.82;40.55
35676;BME280;21790;42.668;23.298;2023-02-17T04:04:28;95560.00;;;8.81;40.36
35676;BME280;21790;42.668;23.298;2023-02-17T04:06:53;95556.91;;;8.79;40.79
35676;BME280;21790;42.668;23.298;2023-02-17T04:09:20;95548.13;;;8.85;40.61
35676;BME280;21790;42.668;23.298;2023-02-17T04:11:46;95546.31;;;8.62;40.80
35676;BME280;21790;42.668;23.298;2023-02-17T04:14:11;95552.78;;;8.71;40.78
35676;BME280;21790;42.668;23.298;2023-02-17T04:16:36;95544.28;;;8.62;41.10
35676;BME280;21790;42.668;23.298;2023-02-17T04:19:06;95552.78;;;8.71;40.78
35676;BME280;21790;42.668;23.298;2023-02-17T04:21:31;95556.63;;;8.74;40.58
35676;BME280;21790;42.668;23.298;2023-02-17T04:23:59;95550.16;;;8.64;40.95
35676;BME280;21790;42.668;23.298;2023-02-17T04:26:25;95542.19;;;8.86;40.51
35676;BME280;21790;42.668;23.298;2023-02-17T04:28:50;95533.22;;;8.82;40.02
35676;BME280;21790;42.668;23.298;2023-02-17T04:31:16;95549.66;;;8.86;40.45
35676;BME280;21790;42.668;23.298;2023-02-17T04:33:41;95556.22;;;8.75;40.60
35676;BME280;21790;42.668;23.298;2023-02-17T04:36:07;95549.78;;;9.14;39.85
35676;BME280;21790;42.668;23.298;2023-02-17T04:38:33;95546.06;;;9.05;39.62
35676;BME280;21790;42.668;23.298;2023-02-17T04:40:59;95554.59;;;8.94;39.88
35676;BME280;21790;42.668;23.298;2023-02-17T04:43:26;95555.56;;;9.20;39.58
35676;BME280;21790;42.668;23.298;2023-02-17T04:45:52;95561.59;;;9.15;39.55
35676;BME280;21790;42.668;23.298;2023-02-17T04:48:18;95559.59;;;8.83;40.12
35676;BME280;21790;42.668;23.298;2023-02-17T04:50:44;95557.63;;;9.16;39.51
35676;BME280;21790;42.668;23.298;2023-02-17T04:53:10;95570.91;;;9.05;39.50
35676;BME280;21790;42.668;23.298;2023-02-17T04:55:36;95553.28;;;8.66;40.48
35676;BME280;21790;42.668;23.298;2023-02-17T04:58:01;95559.47;;;8.70;40.44
35676;BME280;21790;42.668;23.298;2023-02-17T05:00:27;95563.59;;;8.62;40.69
35676;BME280;21790;42.668;23.298;2023-02-17T05:02:52;95559.03;;;8.36;41.52
35676;BME280;21790;42.668;23.298;2023-02-17T05:05:18;95563.28;;;8.40;41.47
35676;BME280;21790;42.668;23.298;2023-02-17T05:07:44;95552.31;;;8.73;40.83
35676;BME280;21790;42.668;23.298;2023-02-17T05:10:11;95572.06;;;8.71;41.01
35676;BME280;21790;42.668;23.298;2023-02-17T05:12:37;95582.88;;;9.14;39.75
35676;BME280;21790;42.668;23.298;2023-02-17T05:15:04;95564.91;;;8.74;40.51
35676;BME280;21790;42.668;23.298;2023-02-17T05:17:30;95574.03;;;8.71;40.45
35676;BME280;21790;42.668;23.298;2023-02-17T05:19:55;95590.00;;;8.96;40.07
35676;BME280;21790;42.668;23.298;2023-02-17T05:22:21;95586.78;;;8.81;40.52
35676;BME280;21790;42.668;23.298;2023-02-17T05:24:46;95573.59;;;8.56;41.16
35676;BME280;21790;42.668;23.298;2023-02-17T05:27:12;95602.34;;;8.55;40.74
35676;BME280;21790;42.668;23.298;2023-02-17T05:29:37;95589.78;;;8.70;40.96
35676;BME280;21790;42.668;23.298;2023-02-17T05:32:03;95587.28;;;8.20;41.90
35676;BME280;21790;42.668;23.298;2023-02-17T05:34:29;95594.56;;;8.30;42.06
35676;BME280;21790;42.668;23.298;2023-02-17T05:36:54;95595.03;;;10.23;53.07
35676;BME280;21790;42.668;23.298;2023-02-17T05:39:20;95584.22;;;10.83;42.31
35676;BME280;21790;42.668;23.298;2023-02-17T05:41:46;95593.25;;;10.58;40.13
35676;BME280;21790;42.668;23.298;2023-02-17T05:44:12;95606.88;;;10.78;38.27
35676;BME280;21790;42.668;23.298;2023-02-17T05:46:37;95601.09;;;10.60;37.32
35676;BME280;21790;42.668;23.298;2023-02-17T05:49:02;95608.16;;;10.61;37.11
35676;BME280;21790;42.668;23.298;2023-02-17T05:51:28;95610.53;;;10.33;37.59
35676;BME280;21790;42.668;23.298;2023-02-17T05:53:53;95609.44;;;9.86;39.00
35676;BME280;21790;42.668;23.298;2023-02-17T05:56:19;95608.38;;;9.51;39.20
35676;BME280;21790;42.668;23.298;2023-02-17T05:58:44;95617.41;;;9.03;40.68
35676;BME280;21790;42.668;23.298;2023-02-17T06:01:10;95620.78;;;9.10;40.58
35676;BME280;21790;42.668;23.298;2023-02-17T06:03:37;95626.59;;;8.96;40.73
35676;BME280;21790;42.668;23.298;2023-02-17T06:06:03;95604.81;;;8.86;41.09
35676;BME280;21790;42.668;23.298;2023-02-17T06:08:29;95614.50;;;9.10;40.41
35676;BME280;21790;42.668;23.298;2023-02-17T06:10:55;95622.00;;;9.26;40.53
35676;BME280;21790;42.668;23.298;2023-02-17T06:13:20;95622.53;;;9.37;40.15
35676;BME280;21790;42.668;23.298;2023-02-17T06:15:46;95620.34;;;9.28;40.55
35676;BME280;21790;42.668;23.298;2023-02-17T06:18:11;95623.81;;;9.32;40.46
35676;BME280;21790;42.668;23.298;2023-02-17T06:20:37;95620.28;;;9.32;40.24
35676;BME280;21790;42.668;23.298;2023-02-17T06:23:02;95622.41;;;9.40;40.37
35676;BME280;21790;42.668;23.298;2023-02-17T06:25:28;95621.22;;;9.57;39.77
35676;BME280;21790;42.668;23.298;2023-02-17T06:27:53;95623.53;;;9.59;39.97
35676;BME280;21790;42.668;23.298;2023-02-17T06:30:19;95618.59;;;9.66;40.11
35676;BME280;21790;42.668;23.298;2023-02-17T06:32:46;95622.38;;;9.89;39.50
35676;BME280;21790;42.668;23.298;2023-02-17T06:35:11;95613.72;;;10.03;39.65
35676;BME280;21790;42.668;23.298;2023-02-17T06:37:37;95615.47;;;10.26;39.19
35676;BME280;21790;42.668;23.298;2023-02-17T06:40:04;95617.13;;;10.52;39.32
35676;BME280;21790;42.668;23.298;2023-02-17T06:42:29;95616.03;;;10.75;38.56
35676;BME280;21790;42.668;23.298;2023-02-17T06:44:55;95612.75;;;10.80;38.26
35676;BME280;21790;42.668;23.298;2023-02-17T06:47:20;95626.91;;;11.20;37.63
35676;BME280;21790;42.668;23.298;2023-02-17T06:49:46;95632.44;;;11.45;37.79
35676;BME280;21790;42.668;23.298;2023-02-17T06:52:11;95632.97;;;11.53;37.17
35676;BME280;21790;42.668;23.298;2023-02-17T06:54:36;95630.22;;;11.78;36.89
35676;BME280;21790;42.668;23.298;2023-02-17T06:57:02;95636.84;;;11.81;36.50
35676;BME280;21790;42.668;23.298;2023-02-17T06:59:27;95630.06;;;11.94;35.82
35676;BME280;21790;42.668;23.298;2023-02-17T07:01:53;95631.84;;;11.88;35.93
35676;BME280;21790;42.668;23.298;2023-02-17T07:04:18;95631.81;;;12.23;35.72
35676;BME280;21790;42.668;23.298;2023-02-17T07:06:44;95639.28;;;12.47;35.09
35676;BME280;21790;42.668;23.298;2023-02-17T07:09:09;95634.31;;;12.64;35.03
35676;BME280;21790;42.668;23.298;2023-02-17T07:11:38;95633.00;;;12.78;34.76
35676;BME280;21790;42.668;23.298;2023-02-17T07:14:04;95623.50;;;12.88;34.72
35676;BME280;21790;42.668;23.298;2023-02-17T07:16:30;95635.81;;;13.09;34.33
35676;BME280;21790;42.668;23.298;2023-02-17T07:18:55;95634.06;;;13.02;34.18
35676;BME280;21790;42.668;23.298;2023-02-17T07:21:20;95639.91;;;13.26;34.07
35676;BME280;21790;42.668;23.298;2023-02-17T07:23:46;95645.09;;;13.15;33.69
35676;BME280;21790;42.668;23.298;2023-02-17T07:26:13;95645.81;;;13.37;33.93
35676;BME280;21790;42.668;23.298;2023-02-17T07:28:39;95648.22;;;13.26;33.48
35676;BME280;21790;42.668;23.298;2023-02-17T07:31:10;95654.31;;;13.43;33.45
35676;BME280;21790;42.668;23.298;2023-02-17T07:33:36;95649.72;;;13.49;33.49
35676;BME280;21790;42.668;23.298;2023-02-17T07:36:10;95647.50;;;13.83;33.70
35676;BME280;21790;42.668;23.298;2023-02-17T07:38:36;95650.91;;;13.78;32.98
35676;BME280;21790;42.668;23.298;2023-02-17T07:41:13;95647.59;;;13.62;32.99
35676;BME280;21790;42.668;23.298;2023-02-17T07:43:40;95656.88;;;13.28;32.76
35676;BME280;21790;42.668;23.298;2023-02-17T07:46:06;95658.28;;;13.72;33.03
35676;BME280;21790;42.668;23.298;2023-02-17T07:48:32;95658.19;;;14.03;32.93
35676;BME280;21790;42.668;23.298;2023-02-17T07:51:06;95652.41;;;14.56;32.28
35676;BME280;21790;42.668;23.298;2023-02-17T07:53:33;95648.38;;;14.66;32.19
35676;BME280;21790;42.668;23.298;2023-02-17T07:56:01;95659.59;;;14.90;31.31
35676;BME280;21790;42.668;23.298;2023-02-17T07:58:27;95646.66;;;14.69;31.51
35676;BME280;21790;42.668;23.298;2023-02-17T08:00:52;95646.06;;;14.55;31.20
35676;BME280;21790;42.668;23.298;2023-02-17T08:03:17;95640.59;;;14.79;31.45
35676;BME280;21790;42.668;23.298;2023-02-17T08:05:43;95649.41;;;14.87;31.10
35676;BME280;21790;42.668;23.298;2023-02-17T08:08:08;95630.19;;;15.16;31.50
35676;BME280;21790;42.668;23.298;2023-02-17T08:10:52;95632.28;;;15.30;31.37
35676;BME280;21790;42.668;23.298;2023-02-17T08:13:36;95641.16;;;15.62;30.77
35676;BME280;21790;42.668;23.298;2023-02-17T08:16:02;95631.81;;;15.74;30.56
35676;BME280;21790;42.668;23.298;2023-02-17T08:18:27;95631.41;;;15.90;30.16
35676;BME280;21790;42.668;23.298;2023-02-17T08:20:55;95632.13;;;16.23;30.62
35676;BME280;21790;42.668;23.298;2023-02-17T08:23:21;95635.78;;;16.29;29.68
35676;BME280;21790;42.668;23.298;2023-02-17T08:25:46;95633.41;;;16.37;29.72
35676;BME280;21790;42.668;23.298;2023-02-17T08:28:14;95626.91;;;16.55;29.78
35676;BME280;21790;42.668;23.298;2023-02-17T08:30:40;95620.81;;;16.80;29.60
35676;BME280;21790;42.668;23.298;2023-02-17T08:33:05;95613.69;;;16.94;29.30
35676;BME280;21790;42.668;23.298;2023-02-17T08:35:31;95621.75;;;17.36;28.42
35676;BME280;21790;42.668;23.298;2023-02-17T08:37:56;95612.59;;;17.50;28.46
35676;BME280;21790;42.668;23.298;2023-02-17T08:40:22;95617.78;;;17.72;27.92
35676;BME280;21790;42.668;23.298;2023-02-17T08:42:48;95620.81;;;17.88;28.26
35676;BME280;21790;42.668;23.298;2023-02-17T08:45:14;95617.75;;;18.07;28.05
35676;BME280;21790;42.668;23.298;2023-02-17T08:47:40;95618.72;;;18.24;28.27
35676;BME280;21790;42.668;23.298;2023-02-17T08:50:08;95612.69;;;18.51;27.60
35676;BME280;21790;42.668;23.298;2023-02-17T08:52:34;95612.31;;;18.84;27.49
35676;BME280;21790;42.668;23.298;2023-02-17T08:55:00;95609.91;;;18.97;27.71
35676;BME280;21790;42.668;23.298;2023-02-17T08:57:26;95599.47;;;19.23;26.97
35676;BME280;21790;42.668;23.298;2023-02-17T08:59:52;95612.31;;;19.36;26.90
35676;BME280;21790;42.668;23.298;2023-02-17T09:02:18;95607.47;;;19.36;25.42
35676;BME280;21790;42.668;23.298;2023-02-17T09:04:44;95597.56;;;19.41;24.77
35676;BME280;21790;42.668;23.298;2023-02-17T09:07:11;95613.59;;;19.40;23.80
35676;BME280;21790;42.668;23.298;2023-02-17T09:09:37;95615.03;;;19.56;24.49
35676;BME280;21790;42.668;23.298;2023-02-17T09:12:03;95599.16;;;19.84;23.16
35676;BME280;21790;42.668;23.298;2023-02-17T09:14:29;95599.66;;;19.83;23.88
35676;BME280;21790;42.668;23.298;2023-02-17T09:16:55;95600.13;;;20.24;23.43
35676;BME280;21790;42.668;23.298;2023-02-17T09:19:24;95600.50;;;20.42;22.94
35676;BME280;21790;42.668;23.298;2023-02-17T09:21:49;95599.50;;;20.45;22.39
35676;BME280;21790;42.668;23.298;2023-02-17T09:24:16;95598.03;;;20.61;22.06
35676;BME280;21790;42.668;23.298;2023-02-17T09:26:42;95606.19;;;20.65;21.83
35676;BME280;21790;42.668;23.298;2023-02-17T09:29:07;95603.63;;;20.61;22.63
35676;BME280;21790;42.668;23.298;2023-02-17T09:31:34;95598.50;;;20.54;22.17
35676;BME280;21790;42.668;23.298;2023-02-17T09:34:00;95607.22;;;20.67;21.83
35676;BME280;21790;42.668;23.298;2023-02-17T09:36:28;95596.94;;;20.48;21.49
35676;BME280;21790;42.668;23.298;2023-02-17T09:38:55;95608.72;;;20.63;21.57
35676;BME280;21790;42.668;23.298;2023-02-17T09:41:40;95599.13;;;20.97;21.48
35676;BME280;21790;42.668;23.298;2023-02-17T09:44:24;95599.13;;;20.97;21.83
35676;BME280;21790;42.668;23.298;2023-02-17T09:47:04;95601.94;;;21.03;21.75
35676;BME280;21790;42.668;23.298;2023-02-17T09:49:40;95604.81;;;20.38;20.80
35676;BME280;21790;42.668;23.298;2023-02-17T09:52:13;95591.31;;;20.48;21.44
35676;BME280;21790;42.668;23.298;2023-02-17T09:57:13;95600.88;;;20.78;21.60
35676;BME280;21790;42.668;23.298;2023-02-17T09:59:48;95595.19;;;20.56;20.47
35676;BME280;21790;42.668;23.298;2023-02-17T10:05:01;95593.22;;;20.89;21.18
35676;BME280;21790;42.668;23.298;2023-02-17T10:07:32;95593.28;;;21.23;21.33
35676;BME280;21790;42.668;23.298;2023-02-17T10:10:19;95589.19;;;21.74;19.96
35676;BME280;21790;42.668;23.298;2023-02-17T10:12:50;95582.31;;;21.42;20.11
35676;BME280;21790;42.668;23.298;2023-02-17T10:15:24;95580.50;;;21.66;19.77
35676;BME280;21790;42.668;23.298;2023-02-17T10:18:02;95575.34;;;21.98;19.81
35676;BME280;21790;42.668;23.298;2023-02-17T10:20:59;95579.91;;;22.18;19.17
35676;BME280;21790;42.668;23.298;2023-02-17T10:23:27;95563.06;;;21.85;20.03
35676;BME280;21790;42.668;23.298;2023-02-17T10:31:04;95563.44;;;22.39;19.78
35676;BME280;21790;42.668;23.298;2023-02-17T10:38:50;95550.81;;;22.57;18.99
35676;BME280;21790;42.668;23.298;2023-02-17T10:41:32;95558.63;;;22.80;18.99
35676;BME280;21790;42.668;23.298;2023-02-17T10:44:00;95551.69;;;22.81;19.52
35676;BME280;21790;42.668;23.298;2023-02-17T10:46:29;95541.59;;;22.56;18.69
35676;BME280;21790;42.668;23.298;2023-02-17T10:48:57;95548.75;;;22.57;18.93
35676;BME280;21790;42.668;23.298;2023-02-17T10:51:27;95551.84;;;22.48;19.06
35676;BME280;21790;42.668;23.298;2023-02-17T10:54:01;95547.16;;;22.73;18.97
35676;BME280;21790;42.668;23.298;2023-02-17T10:56:47;95531.63;;;22.96;18.98
35676;BME280;21790;42.668;23.298;2023-02-17T11:01:47;95537.31;;;22.90;19.50
35676;BME280;21790;42.668;23.298;2023-02-17T11:04:13;95528.84;;;22.90;19.50
35676;BME280;21790;42.668;23.298;2023-02-17T11:09:28;95523.56;;;23.41;18.84
35676;BME280;21790;42.668;23.298;2023-02-17T11:12:02;95524.22;;;22.46;18.98
35676;BME280;21790;42.668;23.298;2023-02-17T11:14:30;95535.88;;;22.67;19.17
35676;BME280;21790;42.668;23.298;2023-02-17T11:17:02;95535.34;;;22.80;19.85
35676;BME280;21790;42.668;23.298;2023-02-17T11:19:33;95526.91;;;22.74;19.18
35676;BME280;21790;42.668;23.298;2023-02-17T11:22:01;95522.56;;;23.09;19.23
35676;BME280;21790;42.668;23.298;2023-02-17T11:24:28;95524.72;;;23.27;19.28
35676;BME280;21790;42.668;23.298;2023-02-17T11:27:00;95528.91;;;23.50;19.29
35676;BME280;21790;42.668;23.298;2023-02-17T11:29:26;95514.50;;;23.54;19.09
35676;BME280;21790;42.668;23.298;2023-02-17T11:32:06;95521.22;;;23.45;18.85
35676;BME280;21790;42.668;23.298;2023-02-17T11:34:36;95520.50;;;23.09;18.92
35676;BME280;21790;42.668;23.298;2023-02-17T11:37:14;95498.25;;;23.06;19.06
35676;BME280;21790;42.668;23.298;2023-02-17T11:39:49;95520.66;;;22.87;19.47
35676;BME280;21790;42.668;23.298;2023-02-17T11:44:46;95514.41;;;22.59;19.13
35676;BME280;21790;42.668;23.298;2023-02-17T11:49:56;95497.81;;;22.96;19.06
35676;BME280;21790;42.668;23.298;2023-02-17T11:52:52;95506.91;;;23.08;19.60
35676;BME280;21790;42.668;23.298;2023-02-17T12:07:16;95496.16;;;23.12;19.43
35676;BME280;21790;42.668;23.298;2023-02-17T12:12:21;95475.84;;;23.43;19.30
35676;BME280;21790;42.668;23.298;2023-02-17T12:15:23;95484.47;;;23.26;19.88
35676;BME280;21790;42.668;23.298;2023-02-17T12:20:55;95471.75;;;22.84;19.44
35676;BME280;21790;42.668;23.298;2023-02-17T12:26:02;95468.47;;;22.75;20.09
35676;BME280;21790;42.668;23.298;2023-02-17T12:28:35;95455.97;;;22.65;19.62
35676;BME280;21790;42.668;23.298;2023-02-17T12:34:49;95444.03;;;22.53;19.68
35676;BME280;21790;42.668;23.298;2023-02-17T12:36:56;95434.56;;;22.50;19.75
35676;BME280;21790;42.668;23.298;2023-02-17T12:39:40;95444.19;;;22.72;20.27
35676;BME280;21790;42.668;23.298;2023-02-17T12:42:15;95435.13;;;22.84;20.03
35676;BME280;21790;42.668;23.298;2023-02-17T12:44:54;95427.53;;;22.68;19.81
35676;BME280;21790;42.668;23.298;2023-02-17T12:50:29;95437.03;;;22.65;19.85
35676;BME280;21790;42.668;23.298;2023-02-17T12:53:01;95424.19;;;22.34;20.01
35676;BME280;21790;42.668;23.298;2023-02-17T12:55:43;95428.31;;;22.69;20.08
35676;BME280;21790;42.668;23.298;2023-02-17T12:58:26;95422.50;;;22.56;19.92
35676;BME280;21790;42.668;23.298;2023-02-17T13:01:14;95417.22;;;22.41;20.10
35676;BME280;21790;42.668;23.298;2023-02-17T13:03:43;95422.88;;;22.41;20.21
35676;BME280;21790;42.668;23.298;2023-02-17T13:11:25;95421.38;;;22.34;20.10
35676;BME280;21790;42.668;23.298;2023-02-17T13:13:51;95416.81;;;22.26;19.86
35676;BME280;21790;42.668;23.298;2023-02-17T13:16:17;95422.94;;;22.30;21.52
35676;BME280;21790;42.668;23.298;2023-02-17T13:18:45;95423.00;;;22.54;21.29
35676;BME280;21790;42.668;23.298;2023-02-17T13:24:12;95414.38;;;22.82;21.29
35676;BME280;21790;42.668;23.298;2023-02-17T13:26:43;95409.66;;;22.60;20.19
35676;BME280;21790;42.668;23.298;2023-02-17T13:31:55;95410.72;;;22.57;19.93
35676;BME280;21790;42.668;23.298;2023-02-17T13:37:25;95409.34;;;22.34;19.49
35676;BME280;21790;42.668;23.298;2023-02-17T13:42:50;95402.41;;;21.88;19.67
35676;BME280;21790;42.668;23.298;2023-02-17T13:45:26;95417.94;;;22.06;19.35
35676;BME280;21790;42.668;23.298;2023-02-17T13:47:56;95402.41;;;21.88;19.51
35676;BME280;21790;42.668;23.298;2023-02-17T13:50:36;95414.91;;;21.98;19.47
35676;BME280;21790;42.668;23.298;2023-02-17T13:53:28;95411.81;;;22.07;19.55
35676;BME280;21790;42.668;23.298;2023-02-17T13:55:57;95413.38;;;22.03;20.02
35676;BME280;21790;42.668;23.298;2023-02-17T13:58:29;95419.03;;;21.97;19.72
35676;BME280;21790;42.668;23.298;2023-02-17T14:00:55;95408.56;;;21.87;19.50
35676;BME280;21790;42.668;23.298;2023-02-17T14:03:25;95416.41;;;22.05;19.47
35676;BME280;21790;42.668;23.298;2023-02-17T14:05:56;95408.28;;;21.90;19.22
35676;BME280;21790;42.668;23.298;2023-02-17T14:08:32;95409.59;;;21.84;18.52
35676;BME280;21790;42.668;23.298;2023-02-17T14:13:34;95414.63;;;21.39;19.16
35676;BME280;21790;42.668;23.298;2023-02-17T14:16:00;95407.47;;;21.43;19.02
35676;BME280;21790;42.668;23.298;2023-02-17T14:18:32;95402.63;;;21.33;19.32
35676;BME280;21790;42.668;23.298;2023-02-17T14:21:00;95406.47;;;21.13;19.38
35676;BME280;21790;42.668;23.298;2023-02-17T14:23:26;95407.25;;;21.02;19.84
35676;BME280;21790;42.668;23.298;2023-02-17T14:25:52;95407.50;;;21.10;19.98